createdAt,value
2018-06-14T00:00:47.269Z,4.00
2018-06-14T00:03:15.441Z,3.60
2018-06-14T00:05:43.616Z,3.67
2018-06-14T00:08:11.828Z,3.70
2018-06-14T00:10:39.993Z,4.20
2018-06-14T00:13:08.170Z,5.10
2018-06-14T00:15:36.322Z,4.63
2018-06-14T00:18:04.546Z,4.70
2018-06-14T00:20:32.738Z,4.07
2018-06-14T00:23:00.925Z,4.23
2018-06-14T00:25:29.095Z,5.00
2018-06-14T00:27:57.359Z,4.00
2018-06-14T00:30:25.507Z,4.33
2018-06-14T00:32:53.668Z,4.90
2018-06-14T00:35:21.817Z,4.60
2018-06-14T00:37:49.964Z,5.10
2018-06-14T00:40:18.121Z,4.13
2018-06-14T00:42:46.310Z,5.17
2018-06-14T00:45:14.525Z,4.83
2018-06-14T00:47:42.725Z,5.30
2018-06-14T00:50:10.870Z,5.73
2018-06-14T00:52:39.058Z,5.03
2018-06-14T00:55:07.278Z,5.30
2018-06-14T00:57:35.461Z,4.73
2018-06-14T01:00:03.693Z,5.87
2018-06-14T01:02:33.225Z,4.10
2018-06-14T01:05:01.440Z,5.50
2018-06-14T01:07:29.621Z,4.13
2018-06-14T01:09:57.787Z,5.40
2018-06-14T01:12:25.940Z,4.63
2018-06-14T01:14:54.145Z,5.27
2018-06-14T01:17:22.325Z,5.37
2018-06-14T01:19:50.508Z,5.03
2018-06-14T01:22:18.697Z,5.00
2018-06-14T01:24:46.886Z,5.17
2018-06-14T01:27:15.987Z,7.43
2018-06-14T01:29:45.619Z,4.97
2018-06-14T01:32:13.866Z,4.67
2018-06-14T01:34:42.122Z,5.70
2018-06-14T01:37:10.293Z,5.03
2018-06-14T01:39:38.470Z,5.17
2018-06-14T01:42:09.493Z,6.10
2018-06-14T01:44:37.846Z,6.00
2018-06-14T01:47:06.293Z,4.93
2018-06-14T01:49:35.009Z,6.00
2018-06-14T01:52:03.474Z,7.10
2018-06-14T01:54:31.626Z,5.70
2018-06-14T01:56:59.793Z,5.10
2018-06-14T01:59:27.968Z,5.67
2018-06-14T02:01:56.759Z,5.67
2018-06-14T02:04:26.693Z,5.23
2018-06-14T02:06:54.866Z,5.73
2018-06-14T02:09:23.047Z,5.90
2018-06-14T02:11:51.348Z,5.73
2018-06-14T02:14:19.522Z,6.70
2018-06-14T02:16:47.721Z,5.87
2018-06-14T02:19:15.914Z,5.70
2018-06-14T02:21:44.077Z,6.30
2018-06-14T02:24:12.248Z,6.30
2018-06-14T02:26:40.474Z,7.20
2018-06-14T02:29:08.637Z,6.60
2018-06-14T02:31:36.806Z,6.10
2018-06-14T02:34:04.977Z,6.70
2018-06-14T02:36:33.250Z,6.30
2018-06-14T02:39:01.442Z,6.07
2018-06-14T02:41:29.613Z,6.60
2018-06-14T02:43:57.841Z,6.17
2018-06-14T02:46:26.017Z,6.23
2018-06-14T02:48:54.231Z,6.00
2018-06-14T02:51:22.402Z,6.20
2018-06-14T02:53:50.577Z,6.50
2018-06-14T02:56:18.753Z,6.20
2018-06-14T02:58:46.925Z,6.53
2018-06-14T03:01:15.102Z,5.90
2018-06-14T03:03:43.325Z,6.03
2018-06-14T03:06:11.218Z,7.00
2018-06-14T03:08:39.431Z,5.10
2018-06-14T03:11:07.667Z,6.13
2018-06-14T03:13:35.830Z,5.30
2018-06-14T03:16:03.969Z,6.80
2018-06-14T03:18:32.152Z,6.70
2018-06-14T03:21:03.367Z,6.80
2018-06-14T03:23:31.966Z,6.30
2018-06-14T03:26:00.154Z,6.37
2018-06-14T03:28:28.307Z,6.43
2018-06-14T03:30:56.501Z,6.00
2018-06-14T03:33:24.663Z,5.60
2018-06-14T03:35:52.849Z,6.63
2018-06-14T03:38:21.025Z,6.30
2018-06-14T03:40:49.206Z,6.20
2018-06-14T03:43:17.349Z,6.50
2018-06-14T03:45:45.545Z,6.73
2018-06-14T03:48:13.714Z,6.10
2018-06-14T03:50:41.954Z,7.10
2018-06-14T03:53:10.163Z,7.20
2018-06-14T03:55:38.633Z,7.60
2018-06-14T03:58:06.886Z,7.00
2018-06-14T04:00:35.094Z,6.47
2018-06-14T04:03:03.337Z,6.67
2018-06-14T04:05:31.520Z,6.20
2018-06-14T04:07:59.781Z,5.50
2018-06-14T04:10:27.989Z,6.10
2018-06-14T04:12:56.216Z,6.13
2018-06-14T04:15:24.413Z,6.43
2018-06-14T04:18:01.275Z,6.77
2018-06-14T04:20:29.844Z,5.73
2018-06-14T04:22:58.099Z,6.80
2018-06-14T04:25:26.324Z,6.50
2018-06-14T04:27:54.537Z,6.67
2018-06-14T04:30:23.922Z,7.60
2018-06-14T04:32:52.490Z,7.20
2018-06-14T04:35:20.678Z,6.37
2018-06-14T04:37:48.882Z,6.67
2018-06-14T04:40:17.076Z,6.43
2018-06-14T04:42:45.301Z,6.97
2018-06-14T04:45:13.571Z,6.00
2018-06-14T04:47:41.522Z,6.27
2018-06-14T04:50:09.456Z,6.57
2018-06-14T04:52:37.634Z,6.30
2018-06-14T04:55:06.255Z,11.77
2018-06-14T04:57:34.436Z,10.70
2018-06-14T05:00:02.647Z,7.10
2018-06-14T05:02:30.851Z,5.73
2018-06-14T05:04:59.018Z,6.10
2018-06-14T05:07:27.229Z,7.90
2018-06-14T05:09:55.406Z,7.03
2018-06-14T05:12:23.569Z,6.83
2018-06-14T05:14:51.719Z,6.37
2018-06-14T05:17:19.968Z,6.93
2018-06-14T05:19:48.196Z,6.80
2018-06-14T05:22:16.407Z,8.03
2018-06-14T05:24:44.562Z,6.10
2018-06-14T05:27:12.741Z,6.27
2018-06-14T05:29:40.971Z,7.23
2018-06-14T05:32:09.102Z,6.73
2018-06-14T05:34:37.297Z,7.37
2018-06-14T05:37:05.472Z,6.67
2018-06-14T05:39:33.799Z,6.83
2018-06-14T05:42:01.735Z,7.53
2018-06-14T05:44:29.925Z,7.60
2018-06-14T05:46:58.118Z,6.37
2018-06-14T05:49:26.290Z,5.83
2018-06-14T05:51:54.523Z,7.17
2018-06-14T05:54:22.702Z,6.33
2018-06-14T05:56:50.894Z,6.87
2018-06-14T05:59:19.085Z,6.03
2018-06-14T06:01:47.286Z,6.10
2018-06-14T06:04:15.496Z,8.90
2018-06-14T06:06:43.677Z,10.03
2018-06-14T06:09:12.244Z,6.10
2018-06-14T06:11:40.785Z,5.27
2018-06-14T06:14:08.971Z,5.70
2018-06-14T06:16:37.168Z,5.93
2018-06-14T06:19:05.386Z,4.80
2018-06-14T06:21:33.592Z,5.27
2018-06-14T06:24:01.783Z,4.87
2018-06-14T06:26:29.730Z,5.07
2018-06-14T06:31:32.581Z,4.23
2018-06-14T06:34:00.739Z,4.80
2018-06-14T06:36:28.935Z,4.37
2018-06-14T06:38:57.124Z,4.17
2018-06-14T06:41:25.335Z,5.07
2018-06-14T06:43:53.898Z,5.03
2018-06-14T06:46:22.041Z,5.40
2018-06-14T06:48:50.215Z,5.57
2018-06-14T06:51:18.446Z,5.60
2018-06-14T06:53:46.641Z,5.50
2018-06-14T06:56:14.837Z,5.30
2018-06-14T06:58:43.099Z,4.50
2018-06-14T07:01:11.328Z,4.40
2018-06-14T07:03:39.541Z,5.80
2018-06-14T07:06:07.830Z,5.20
2018-06-14T07:08:36.043Z,5.10
2018-06-14T07:11:04.240Z,4.33
2018-06-14T07:13:32.450Z,4.40
2018-06-14T07:16:00.654Z,3.73
2018-06-14T07:18:28.886Z,4.50
2018-06-14T07:20:57.085Z,4.67
2018-06-14T07:23:25.338Z,4.10
2018-06-14T07:25:53.538Z,3.80
2018-06-14T07:28:21.763Z,3.90
2018-06-14T07:30:49.964Z,3.67
2018-06-14T07:33:18.249Z,3.73
2018-06-14T07:35:46.494Z,3.63
2018-06-14T07:38:14.427Z,4.17
2018-06-14T07:40:42.645Z,4.03
2018-06-14T07:43:10.849Z,4.17
2018-06-14T07:45:39.053Z,4.00
2018-06-14T07:48:07.334Z,3.50
2018-06-14T07:50:35.622Z,2.93
2018-06-14T07:53:03.865Z,3.00
2018-06-14T07:55:32.095Z,3.23
2018-06-14T07:58:00.298Z,3.00
2018-06-14T08:00:28.543Z,3.50
2018-06-14T08:02:56.737Z,3.50
2018-06-14T08:05:25.014Z,3.67
2018-06-14T08:07:53.274Z,8.10
2018-06-14T08:10:21.509Z,2.27
2018-06-14T08:12:49.729Z,3.50
2018-06-14T08:15:17.968Z,2.77
2018-06-14T08:17:46.185Z,2.87
2018-06-14T08:20:14.410Z,3.00
2018-06-14T08:22:42.634Z,3.23
2018-06-14T08:25:10.818Z,2.83
2018-06-14T08:27:39.015Z,2.53
2018-06-14T08:30:07.297Z,2.80
2018-06-14T08:32:35.732Z,10.70
2018-06-14T08:35:03.916Z,4.10
2018-06-14T08:37:32.115Z,2.77
2018-06-14T08:40:00.341Z,2.97
2018-06-14T08:42:28.546Z,2.80
2018-06-14T08:44:57.437Z,3.50
2018-06-14T08:47:26.085Z,3.00
2018-06-14T08:49:54.323Z,2.63
2018-06-14T08:52:22.508Z,2.90
2018-06-14T08:54:50.695Z,3.30
2018-06-14T08:57:18.847Z,3.30
2018-06-14T08:59:47.038Z,3.10
2018-06-14T09:02:15.192Z,2.80
2018-06-14T09:04:43.473Z,3.70
2018-06-14T09:07:11.678Z,2.80
2018-06-14T09:09:39.841Z,2.37
2018-06-14T09:12:08.006Z,3.17
2018-06-14T09:14:36.200Z,2.90
2018-06-14T09:17:04.361Z,2.97
2018-06-14T09:19:32.549Z,3.17
2018-06-14T09:22:00.731Z,3.73
2018-06-14T09:24:28.940Z,4.03
2018-06-14T09:26:57.152Z,4.37
2018-06-14T09:29:25.350Z,4.40
2018-06-14T09:31:53.536Z,3.77
2018-06-14T09:34:21.734Z,3.80
2018-06-14T09:36:49.922Z,4.17
2018-06-14T09:39:18.105Z,3.20
2018-06-14T09:41:46.278Z,3.30
2018-06-14T09:44:14.468Z,3.33
2018-06-14T09:46:42.650Z,3.83
2018-06-14T09:49:14.677Z,3.67
2018-06-14T09:51:43.365Z,2.87
2018-06-14T09:54:11.582Z,3.40
2018-06-14T09:56:39.808Z,3.00
2018-06-14T09:59:08.452Z,3.50
2018-06-14T10:01:36.618Z,4.23
2018-06-14T10:04:04.878Z,3.50
2018-06-14T10:06:33.137Z,4.53
2018-06-14T10:09:01.332Z,3.33
2018-06-14T10:11:29.511Z,3.03
2018-06-14T10:13:57.799Z,3.43
2018-06-14T10:16:25.970Z,3.80
2018-06-14T10:18:54.134Z,3.90
2018-06-14T10:21:22.309Z,3.87
2018-06-14T10:23:50.502Z,4.20
2018-06-14T10:26:18.794Z,3.53
2018-06-14T10:28:47.049Z,3.57
2018-06-14T10:31:15.213Z,3.60
2018-06-14T10:33:43.387Z,3.80
2018-06-14T10:36:11.539Z,4.20
2018-06-14T10:38:39.486Z,3.60
2018-06-14T10:41:07.645Z,3.80
2018-06-14T10:43:35.832Z,3.77
2018-06-14T10:46:03.965Z,2.97
2018-06-14T10:48:32.188Z,4.23
2018-06-14T10:51:00.380Z,4.10
2018-06-14T10:53:28.625Z,3.70
2018-06-14T10:55:56.822Z,4.53
2018-06-14T10:58:25.062Z,3.97
2018-06-14T11:00:53.307Z,3.60
2018-06-14T11:03:21.546Z,3.93
2018-06-14T11:05:49.863Z,3.90
2018-06-14T11:08:18.071Z,3.30
2018-06-14T11:10:46.271Z,4.87
2018-06-14T11:13:14.537Z,3.70
2018-06-14T11:15:42.748Z,3.93
2018-06-14T11:18:11.041Z,4.20
2018-06-14T11:20:39.276Z,4.20
2018-06-14T11:23:07.469Z,4.60
2018-06-14T11:25:35.666Z,4.03
2018-06-14T11:28:03.932Z,3.60
2018-06-14T11:30:32.116Z,4.43
2018-06-14T11:33:00.294Z,5.20
2018-06-14T11:35:28.585Z,4.00
2018-06-14T11:37:56.806Z,4.50
2018-06-14T11:40:25.089Z,4.50
2018-06-14T11:42:53.317Z,3.50
2018-06-14T11:45:21.533Z,3.83
2018-06-14T11:47:49.797Z,4.43
2018-06-14T11:50:17.775Z,4.47
2018-06-14T11:52:46.012Z,4.10
2018-06-14T11:55:14.218Z,3.63
2018-06-14T11:57:42.433Z,3.93
2018-06-14T12:00:11.028Z,4.70
2018-06-14T12:02:39.323Z,4.77
2018-06-14T12:05:07.518Z,4.13
2018-06-14T12:07:35.741Z,4.33
2018-06-14T12:10:03.995Z,3.60
2018-06-14T12:12:32.215Z,4.13
2018-06-14T12:15:00.468Z,4.20
2018-06-14T12:17:28.672Z,4.80
2018-06-14T12:19:56.893Z,4.60
2018-06-14T12:22:25.084Z,4.23
2018-06-14T12:24:53.280Z,4.27
2018-06-14T12:27:21.519Z,3.60
2018-06-14T12:29:49.717Z,4.17
2018-06-14T12:32:17.939Z,3.40
2018-06-14T12:34:46.163Z,4.10
2018-06-14T12:37:14.360Z,4.53
2018-06-14T12:39:42.600Z,4.50
2018-06-14T12:42:10.805Z,4.40
2018-06-14T12:44:39.071Z,4.27
2018-06-14T12:47:07.329Z,3.90
2018-06-14T12:49:35.520Z,3.87
2018-06-14T12:52:04.298Z,4.00
2018-06-14T12:54:32.474Z,4.50
2018-06-14T12:57:00.623Z,4.17
2018-06-14T12:59:28.570Z,3.63
2018-06-14T13:01:56.734Z,4.47
2018-06-14T13:04:24.916Z,3.53
2018-06-14T13:06:53.070Z,3.77
2018-06-14T13:09:21.004Z,3.90
2018-06-14T13:11:49.181Z,4.10
2018-06-14T13:14:17.418Z,3.63
2018-06-14T13:16:45.579Z,3.60
2018-06-14T13:19:13.749Z,4.43
2018-06-14T13:21:41.914Z,4.30
2018-06-14T13:24:09.849Z,4.43
2018-06-14T13:26:38.054Z,3.90
2018-06-14T13:29:06.500Z,4.87
2018-06-14T13:31:34.676Z,4.60
2018-06-14T13:34:02.933Z,5.30
2018-06-14T13:36:31.093Z,5.07
2018-06-14T13:39:01.198Z,4.00
2018-06-14T13:41:29.366Z,4.30
2018-06-14T13:43:57.547Z,3.67
2018-06-14T13:46:25.725Z,4.10
2018-06-14T13:48:54.018Z,4.13
2018-06-14T13:51:22.181Z,4.27
2018-06-14T13:53:50.389Z,4.50
2018-06-14T13:56:25.094Z,4.50
2018-06-14T13:58:53.308Z,4.20
2018-06-14T14:01:21.543Z,4.83
2018-06-14T14:03:49.756Z,4.23
2018-06-14T14:06:17.959Z,3.53
2018-06-14T14:08:46.211Z,4.60
2018-06-14T14:11:14.429Z,3.90
2018-06-14T14:13:42.749Z,4.93
2018-06-14T14:16:10.948Z,4.17
2018-06-14T14:18:39.201Z,3.93
2018-06-14T14:21:07.409Z,4.60
2018-06-14T14:23:35.671Z,5.27
2018-06-14T14:26:03.887Z,5.00
2018-06-14T14:28:32.104Z,4.10
2018-06-14T14:31:00.302Z,4.47
2018-06-14T14:33:28.525Z,4.40
2018-06-14T14:35:56.774Z,4.13
2018-06-14T14:38:25.123Z,4.23
2018-06-14T14:40:53.349Z,4.60
2018-06-14T14:43:21.530Z,4.50
2018-06-14T14:45:49.754Z,4.23
2018-06-14T14:48:17.948Z,3.83
2018-06-14T14:50:46.188Z,4.37
2018-06-14T14:53:14.553Z,4.43
2018-06-14T14:55:42.829Z,4.33
2018-06-14T14:58:11.020Z,4.43
2018-06-14T15:00:39.202Z,5.40
2018-06-14T15:03:07.415Z,4.40
2018-06-14T15:05:35.705Z,4.97
2018-06-14T15:08:03.898Z,5.80
2018-06-14T15:10:32.099Z,7.83
2018-06-14T15:13:00.374Z,5.57
2018-06-14T15:15:28.550Z,5.30
2018-06-14T15:17:56.733Z,5.00
2018-06-14T15:20:25.031Z,4.40
2018-06-14T15:22:53.459Z,4.10
2018-06-14T15:25:21.655Z,4.33
2018-06-14T15:27:49.830Z,4.10
2018-06-14T15:30:18.079Z,4.20
2018-06-14T15:32:46.333Z,4.13
2018-06-14T15:35:14.542Z,4.27
2018-06-14T15:37:42.767Z,4.33
2018-06-14T15:40:10.970Z,4.30
2018-06-14T15:42:39.197Z,4.90
2018-06-14T15:45:07.426Z,4.30
2018-06-14T15:47:35.653Z,4.63
2018-06-14T15:50:03.973Z,4.80
2018-06-14T15:52:32.291Z,4.70
2018-06-14T15:55:11.913Z,4.67
2018-06-14T15:57:40.121Z,5.47
2018-06-14T16:00:08.311Z,4.40
2018-06-14T16:02:36.485Z,4.80
2018-06-14T16:05:04.685Z,4.10
2018-06-14T16:07:32.865Z,4.50
2018-06-14T16:10:01.081Z,4.33
2018-06-14T16:12:29.242Z,4.80
2018-06-14T16:14:57.433Z,4.90
2018-06-14T16:17:25.712Z,4.43
2018-06-14T16:19:53.863Z,4.17
2018-06-14T16:22:22.041Z,4.10
2018-06-14T16:24:50.199Z,5.03
2018-06-14T16:27:18.444Z,4.60
2018-06-14T16:29:46.638Z,5.03
2018-06-14T16:32:14.810Z,5.77
2018-06-14T16:34:42.972Z,5.10
2018-06-14T16:37:11.150Z,5.60
2018-06-14T16:39:39.293Z,4.50
2018-06-14T16:42:07.461Z,4.97
2018-06-14T16:44:35.678Z,5.30
2018-06-14T16:47:03.822Z,4.80
2018-06-14T16:49:32.018Z,6.37
2018-06-14T16:52:00.178Z,5.23
2018-06-14T16:54:28.350Z,5.30
2018-06-14T16:56:56.546Z,4.60
2018-06-14T16:59:24.729Z,5.50
2018-06-14T17:01:52.869Z,6.20
2018-06-14T17:04:21.100Z,4.50
2018-06-14T17:06:49.300Z,5.37
2018-06-14T17:09:17.505Z,5.03
2018-06-14T17:11:45.651Z,5.23
2018-06-14T17:14:13.845Z,5.00
2018-06-14T17:16:42.010Z,4.73
2018-06-14T17:19:10.185Z,5.00
2018-06-14T17:21:38.385Z,4.83
2018-06-14T17:24:06.625Z,4.97
2018-06-14T17:26:34.773Z,6.77
2018-06-14T17:31:37.398Z,27.43
2018-06-14T17:34:05.641Z,24.03
2018-06-14T17:36:33.801Z,34.27
2018-06-14T17:39:02.032Z,10.30
2018-06-14T17:41:30.294Z,5.30
2018-06-14T17:43:58.353Z,4.40
2018-06-14T17:46:26.648Z,5.13
2018-06-14T17:48:54.845Z,4.63
2018-06-14T17:51:23.051Z,4.23
2018-06-14T17:53:51.258Z,5.00
2018-06-14T17:56:19.486Z,4.40
2018-06-14T17:58:47.723Z,5.00
2018-06-14T18:01:15.928Z,5.57
2018-06-14T18:03:44.153Z,4.77
2018-06-14T18:06:12.431Z,4.93
2018-06-14T18:08:40.645Z,4.80
2018-06-14T18:11:08.957Z,4.53
2018-06-14T18:13:37.182Z,5.07
2018-06-14T18:16:05.407Z,4.63
2018-06-14T18:18:33.631Z,4.90
2018-06-14T18:21:01.879Z,5.17
2018-06-14T18:23:30.382Z,5.23
2018-06-14T18:25:58.624Z,5.10
2018-06-14T18:28:26.954Z,5.17
2018-06-14T18:30:55.178Z,4.43
2018-06-14T18:33:23.405Z,5.30
2018-06-14T18:35:51.777Z,5.77
2018-06-14T18:38:19.994Z,4.60
2018-06-14T18:40:48.003Z,4.47
2018-06-14T18:43:16.237Z,4.40
2018-06-14T18:45:44.472Z,4.60
2018-06-14T18:48:13.198Z,3.80
2018-06-14T18:50:48.236Z,4.90
2018-06-14T18:53:16.387Z,5.10
2018-06-14T18:55:44.569Z,5.17
2018-06-14T18:58:12.760Z,4.70
2018-06-14T19:00:40.989Z,4.90
2018-06-14T19:03:09.173Z,3.93
2018-06-14T19:05:37.394Z,3.77
2018-06-14T19:08:05.566Z,5.03
2018-06-14T19:10:33.766Z,6.27
2018-06-14T19:13:02.002Z,5.43
2018-06-14T19:15:30.194Z,4.60
2018-06-14T19:17:58.370Z,5.67
2018-06-14T19:20:26.559Z,4.93
2018-06-14T19:22:54.772Z,7.27
2018-06-14T19:25:22.994Z,5.60
2018-06-14T19:27:51.173Z,4.97
2018-06-14T19:30:19.346Z,5.27
2018-06-14T19:32:47.571Z,4.53
2018-06-14T19:35:16.096Z,5.60
2018-06-14T19:37:44.236Z,4.87
2018-06-14T19:40:12.507Z,4.83
2018-06-14T19:42:40.668Z,4.53
2018-06-14T19:45:08.895Z,3.77
2018-06-14T19:47:37.105Z,5.00
2018-06-14T19:50:05.309Z,4.87
2018-06-14T19:52:33.514Z,4.60
2018-06-14T19:55:01.689Z,5.00
2018-06-14T19:57:29.890Z,5.43
2018-06-14T19:59:58.057Z,4.70
2018-06-14T20:02:26.256Z,4.57
2018-06-14T20:04:54.433Z,4.87
2018-06-14T20:07:22.622Z,4.13
2018-06-14T20:09:50.857Z,4.17
2018-06-14T20:12:19.104Z,4.57
2018-06-14T20:14:47.262Z,5.37
2018-06-14T20:17:15.454Z,4.37
2018-06-14T20:19:43.626Z,4.37
2018-06-14T20:22:11.809Z,4.87
2018-06-14T20:24:39.993Z,4.40
2018-06-14T20:27:08.167Z,4.97
2018-06-14T20:29:36.323Z,5.17
2018-06-14T20:32:04.493Z,5.30
2018-06-14T20:34:32.658Z,5.03
2018-06-14T20:37:00.846Z,5.13
2018-06-14T20:39:29.021Z,6.17
2018-06-14T20:41:57.293Z,6.40
2018-06-14T20:44:25.401Z,6.30
2018-06-14T20:46:53.594Z,8.47
2018-06-14T20:49:21.749Z,5.53
2018-06-14T20:51:58.550Z,6.60
2018-06-14T20:54:26.706Z,7.87
2018-06-14T20:56:54.893Z,7.50
2018-06-14T20:59:23.134Z,8.60
2018-06-14T21:01:51.327Z,10.80
2018-06-14T21:04:19.559Z,9.63
2018-06-14T21:06:47.734Z,9.20
2018-06-14T21:09:15.914Z,9.43
2018-06-14T21:11:44.090Z,8.10
2018-06-14T21:14:12.258Z,8.20
2018-06-14T21:16:40.425Z,8.33
2018-06-14T21:19:08.594Z,7.07
2018-06-14T21:21:36.803Z,7.70
2018-06-14T21:24:04.995Z,8.17
2018-06-14T21:26:33.172Z,8.37
2018-06-14T21:29:01.331Z,8.30
2018-06-14T21:31:29.695Z,9.33
2018-06-14T21:33:57.913Z,8.30
2018-06-14T21:36:26.074Z,8.43
2018-06-14T21:38:54.269Z,7.50
2018-06-14T21:41:22.570Z,8.70
2018-06-14T21:43:50.813Z,8.73
2018-06-14T21:46:18.953Z,8.50
2018-06-14T21:48:47.126Z,8.27
2018-06-14T21:51:15.333Z,8.57
2018-06-14T21:53:43.549Z,8.20
2018-06-14T21:56:11.758Z,8.90
2018-06-14T21:58:39.961Z,8.27
2018-06-14T22:01:08.206Z,8.27
2018-06-14T22:03:42.020Z,9.37
2018-06-14T22:06:16.875Z,8.80
2018-06-14T22:08:45.108Z,9.07
2018-06-14T22:11:13.314Z,9.23
2018-06-14T22:13:41.555Z,7.80
2018-06-14T22:16:09.756Z,7.70
2018-06-14T22:18:38.026Z,8.07
2018-06-14T22:21:06.387Z,7.63
2018-06-14T22:23:34.591Z,6.63
2018-06-14T22:26:03.059Z,7.67
2018-06-14T22:28:31.254Z,7.60
2018-06-14T22:30:59.463Z,7.87
2018-06-14T22:33:39.073Z,7.10
2018-06-14T22:36:07.300Z,7.80
2018-06-14T22:38:35.497Z,7.70
2018-06-14T22:41:03.714Z,7.23
2018-06-14T22:43:31.939Z,7.80
2018-06-14T22:46:00.135Z,7.83
2018-06-14T22:48:28.345Z,7.60
2018-06-14T22:51:08.156Z,7.87
2018-06-14T22:53:36.356Z,8.00
2018-06-14T22:56:04.570Z,8.53
2018-06-14T22:58:32.777Z,8.53
2018-06-14T23:01:37.729Z,8.20
2018-06-14T23:04:06.742Z,8.53
2018-06-14T23:06:35.026Z,9.37
2018-06-14T23:09:17.055Z,9.20
2018-06-14T23:11:45.274Z,8.30
2018-06-14T23:14:13.499Z,8.90
2018-06-14T23:16:41.437Z,8.77
2018-06-14T23:19:09.690Z,8.23
2018-06-14T23:21:37.904Z,8.73
2018-06-14T23:24:06.126Z,8.43
2018-06-14T23:26:34.427Z,8.70
2018-06-14T23:29:02.613Z,8.80
2018-06-14T23:31:30.828Z,9.20
2018-06-14T23:33:59.026Z,9.73
2018-06-14T23:36:27.238Z,10.23
2018-06-14T23:38:55.471Z,9.60
2018-06-14T23:41:23.666Z,10.03
2018-06-14T23:43:51.892Z,9.57
2018-06-14T23:46:20.118Z,9.97
2018-06-14T23:48:48.357Z,10.53
2018-06-14T23:51:16.723Z,11.67
2018-06-14T23:53:45.215Z,9.83
2018-06-14T23:56:13.387Z,9.60
2018-06-14T23:58:41.533Z,10.20
